Antelope, MT

4:28 PM MDT on August 01, 2014 (GMT -0600)
MesoWest Comertown Turn-Off MT-5 MP 13.4 MT US MT DOT (MMTCOM) Elev 2100 ft | 48.81 °N, 104.25 °W | Change Station

Current weather conditions updated 46 minutes ago

Clear
Clear
81 °F
Feels Like 81 °F
N
6
Wind Variable Wind from SE
Gusts 10.0 mph

Tomorrow is forecast to be Warmer than today.

Today
High -- | Low -- °F
--% Chance of Precip.
Yesterday
High -- | Low -- °F
Precip. -- in
5:31 AM 8:35 PM
Waxing Crescent, 30% visible
Pressure 30.06 in
Visibility 10.0 miles
Clouds Clear
Heat Index 81 °F
Dew Point 58 °F
Humidity 45%
Rainfall 0.00 in
Snow Depth Not available.
UV 6 out of 12
Pollen 7.50 out of 12
Air Quality Not available.
Flu Activity Not available.
METAR KISN 012152Z AUTO VRB03KT 10SM CLR 29/12 A3009 RMK AO2 SLP177 T02940117

More Conditions Fewer Conditions

Pressure 30.06 in
Visibility 10.0 miles
Clouds Clear
Heat Index 81 °F
Dew Point 58 °F
Humidity 45%
Rainfall 0.00 in
Snow Depth Not available.
UV 6 out of 12
Pollen 7.50 out of 12
Air Quality Not available.
Flu Activity Not available.
METAR KISN 012152Z AUTO VRB03KT 10SM CLR 29/12 A3009 RMK AO2 SLP177 T02940117

More Conditions Fewer Conditions

10-Day Weather Forecast

Almanac

Astronomy

Aug. 01, 2014 Rise Set
Actual Time 5:31 AM MDT 8:35 PM MDT
Civil Twilight 4:54 AM MDT 9:12 PM MDT
Nautical Twilight 4:06 AM MDT 10:00 PM MDT
Astronomical Twilight 3:06 AM MDT 10:59 PM MDT
Moon 11:29 AM MDT 10:48 PM MDT
Length of Visible Light 16h 17m
Length of Day
15h 03m
Tomorrow will be 2m 49s shorter.
Waxing Crescent, 30% of the Moon is Illuminated
Today
Waxing Crescent
Aug 3
First Quarter
Aug 10
Full
Aug 17
Last Quarter
Aug 25
New

Today's Extremes

State Highs State Lows

Community

WunderPhotos

Upload Photos

1,739,723 photos uploaded!

Nearby

Snow Depth

Station Depth Elevation
Crystal Lake 0 in 6050 ft
Spur Park 0 in 8100 ft
Porcupine 0 in 6500 ft
Cole Creek 0 in 7850 ft
White Mill 1 in 8700 ft

Earthquake Activity

City Distance Mag. Time & Date
No recent earthquake activity has been reported nearby.
Minimum magnitude displayed is 2.5.

Coastal Water Temperatures

Place Temperature
No Stations Reporting

Nearby Weather Stations

Station Location Temp. Heat Index Dew Point Humidity Wind Precip. Elev Updated Type
HADS BIG MUDDY CREEK NEAR ANTELOPE 3S MT, Antelope, MT 89 °F 86 °F - - North  at  - 0.00 in / hr 2000 ft 3:15 PM MDT MADIS
MesoWest ATOR CREEK , Raymond, MT 82 °F 82 °F 61 °F 48% North  at  0 mph 0.00 in / hr 2270 ft 3:03 PM MDT MADIS
MesoWest Comertown Turn-Off MT-5 MP 13.4, Westby, MT 81 °F 81 °F 58 °F 45% SE  at  6 mph 0.00 in / hr 2100 ft 3:42 PM MDT MADIS
RAWS MEDICINE LAKE MT, Medicine Lake, MT 87 °F 86 °F 56 °F 35% SSE  at  8 mph 0.00 in / hr 1975 ft 2:58 PM MDT MADIS

Show More Stations Show Fewer Stations